Time;durP1;ratioP1;P1;durP2;ratioP2;P2;SDS_P1;SDS_P2;PMS_P1;PMS_P2;Temp;Humidity;BMP_temperature;BMP_pressure;BME280_temperature;BME280_humidity;BME280_pressure;Samples;Min_cycle;Max_cycle;Signal;HPM_P1;HPM_P2
2021/11/07 00:00:35;;;;;;;22.40;16.20;;;;;;;5.68;64.52;100811.22;4995399;28;97670;-94
2021/11/07 00:03:10;;;;;;;21.37;16.17;;;;;;;5.54;64.77;100784.38;4984097;28;101451;-95
2021/11/07 00:08:43;;;;;;;22.17;16.58;;;;;;;5.54;64.78;100800.88;4985175;28;97218;-95
2021/11/07 00:11:21;;;;;;;21.10;15.88;;;;;;;5.37;65.13;100781.88;5019411;28;96801;-95
2021/11/07 00:13:48;;;;;;;22.40;16.00;;;;;;;5.52;64.99;100786.97;4990918;28;100323;-96
2021/11/07 00:16:20;;;;;;;20.03;15.17;;;;;;;5.48;64.97;100781.81;4988168;28;99422;-94
2021/11/07 00:19:02;;;;;;;21.70;16.47;;;;;;;5.44;65.22;100788.78;4999087;28;97081;-94
2021/11/07 00:21:30;;;;;;;22.38;16.13;;;;;;;5.40;65.65;100779.25;4983893;28;97201;-95
2021/11/07 00:24:05;;;;;;;20.27;15.47;;;;;;;5.45;65.33;100785.31;4990534;28;98052;-94
2021/11/07 00:26:44;;;;;;;19.87;14.87;;;;;;;5.39;65.55;100778.38;4977310;28;100318;-95
2021/11/07 00:29:16;;;;;;;20.03;14.60;;;;;;;5.44;65.09;100774.03;4974695;28;96972;-96
2021/11/07 00:45:19;;;;;;;19.73;15.00;;;;;;;5.40;65.58;100742.78;4996338;28;101872;-96
2021/11/07 00:47:57;;;;;;;21.10;15.40;;;;;;;5.45;65.37;100752.31;4984206;28;100709;-94
2021/11/07 00:50:27;;;;;;;18.30;15.10;;;;;;;5.40;65.52;100745.41;5001339;28;97040;-94
2021/11/07 00:53:11;;;;;;;18.53;14.37;;;;;;;5.48;65.42;100748.81;4977417;28;97350;-95
2021/11/07 00:55:45;;;;;;;21.43;14.57;;;;;;;5.51;65.45;100750.56;4957047;28;101334;-94
2021/11/07 00:58:15;;;;;;;24.47;15.00;;;;;;;5.44;65.10;100742.78;4976790;28;101263;-93
2021/11/07 01:03:16;;;;;;;18.98;14.85;;;;;;;5.46;65.48;100742.75;4988632;28;96960;-93
2021/11/07 01:05:42;;;;;;;20.50;15.73;;;;;;;5.25;65.16;100698.66;4965956;28;101679;-95
2021/11/07 01:08:08;;;;;;;25.70;15.93;;;;;;;5.47;65.30;100738.41;4989401;28;97207;-93
2021/11/07 01:10:37;;;;;;;18.67;14.83;;;;;;;5.38;64.93;100705.47;4984893;28;96865;-95
2021/11/07 01:13:03;;;;;;;24.73;16.70;;;;;;;5.49;65.28;100740.13;4975401;28;97211;-95
2021/11/07 01:15:31;;;;;;;21.10;14.83;;;;;;;5.33;65.43;100721.16;4990015;28;98426;-96
2021/11/07 01:17:57;;;;;;;22.63;15.83;;;;;;;5.19;65.52;100689.13;4952119;28;101115;-96
2021/11/07 01:20:25;;;;;;;24.23;16.70;;;;;;;5.27;65.46;100699.50;4976152;28;97053;-96
2021/11/07 01:25:16;;;;;;;24.40;16.53;;;;;;;5.35;65.24;100710.72;5004216;28;98392;-95
2021/11/07 01:27:44;;;;;;;22.40;16.60;;;;;;;4.90;65.15;100634.66;4971844;28;100773;-94
2021/11/07 01:30:16;;;;;;;25.47;16.30;;;;;;;5.31;64.85;100709.88;4962705;28;97015;-93
2021/11/07 01:32:46;;;;;;;;;;;;;;;5.20;65.47;100699.50;4961825;28;96767;-96
2021/11/07 01:37:56;;;;;;;25.23;17.37;;;;;;;5.26;65.23;100696.00;4994332;28;98217;-94
2021/11/07 01:40:26;;;;;;;28.57;18.40;;;;;;;4.89;65.22;100636.41;4991867;28;96967;-94
2021/11/07 01:42:58;;;;;;;18.93;15.23;;;;;;;5.30;65.01;100686.47;4961716;28;97056;-95
2021/11/07 01:45:29;;;;;;;23.17;16.43;;;;;;;5.26;65.43;100685.59;4967872;28;100428;-94
2021/11/07 01:48:04;;;;;;;23.97;16.10;;;;;;;5.26;64.81;100677.78;4974331;28;101294;-94
2021/11/07 01:50:33;;;;;;;22.83;16.03;;;;;;;5.36;64.70;100683.81;4946286;28;97054;-95
2021/11/07 01:53:06;;;;;;;24.17;15.87;;;;;;;5.47;64.48;100673.31;5000596;28;96900;-95
2021/11/07 01:55:32;;;;;;;26.47;15.20;;;;;;;5.52;63.99;100648.09;4968670;28;101062;-94
2021/11/07 01:57:58;;;;;;;21.03;15.67;;;;;;;5.64;63.66;100648.88;4980447;28;101405;-95
2021/11/07 02:00:26;;;;;;;22.20;16.53;;;;;;;5.75;63.75;100655.72;4976282;28;96749;-93
2021/11/07 02:02:52;;;;;;;17.80;14.37;;;;;;;5.76;63.84;100654.84;4990931;28;96821;-94
2021/11/07 02:05:18;;;;;;;15.80;13.80;;;;;;;5.67;63.34;100617.59;4993605;28;101602;-95
2021/11/07 02:07:44;;;;;;;20.10;14.30;;;;;;;5.77;63.13;100628.78;4991391;28;98264;-93
2021/11/07 02:10:13;;;;;;;18.60;14.27;;;;;;;5.57;63.68;100609.88;4991421;28;96714;-95
2021/11/07 02:12:40;;;;;;;16.30;14.30;;;;;;;5.47;63.87;100598.69;4990421;28;96766;-95
2021/11/07 02:15:11;;;;;;;18.47;13.60;;;;;;;5.51;64.13;100609.94;4989585;28;100183;-94
2021/11/07 02:17:37;;;;;;;16.58;13.27;;;;;;;5.52;64.06;100603.84;4975684;28;102015;-91
2021/11/07 02:20:10;;;;;;;17.83;13.63;;;;;;;5.47;63.93;100592.59;4996049;28;97181;-94
2021/11/07 02:22:37;;;;;;;19.67;14.60;;;;;;;5.33;64.19;100567.56;5014995;28;97070;-92
2021/11/07 02:25:04;;;;;;;19.90;14.73;;;;;;;5.40;64.08;100581.38;4978264;28;100309;-94
2021/11/07 02:27:30;;;;;;;15.73;13.67;;;;;;;5.30;64.14;100588.41;4998238;28;101721;-94
2021/11/07 02:29:56;;;;;;;20.27;15.60;;;;;;;5.24;64.55;100582.41;4987154;28;97051;-96
2021/11/07 02:32:26;;;;;;;16.77;14.17;;;;;;;5.16;65.15;100575.50;5000010;28;96644;-96
2021/11/07 02:34:53;;;;;;;16.77;13.90;;;;;;;5.17;65.02;100577.22;5011860;28;101173;-94
2021/11/07 02:37:19;;;;;;;17.03;13.20;;;;;;;5.22;64.95;100575.44;5013129;28;100071;-95
2021/11/07 02:39:45;;;;;;;14.73;13.23;;;;;;;5.22;64.97;100561.56;4989097;28;96630;-95
2021/11/07 02:42:12;;;;;;;16.43;13.10;;;;;;;5.34;64.97;100569.28;4984680;28;96933;-95
2021/11/07 02:44:42;;;;;;;17.73;14.10;;;;;;;5.19;64.65;100530.38;4974272;28;101967;-94
2021/11/07 02:47:09;;;;;;;18.07;14.17;;;;;;;5.33;64.31;100527.66;4972396;28;101826;-96
2021/11/07 02:49:38;;;;;;;15.43;13.13;;;;;;;5.51;64.40;100550.91;4994123;28;96704;-92
2021/11/07 02:52:05;;;;;;;20.00;13.33;;;;;;;5.57;64.23;100543.03;4973073;28;96882;-96
2021/11/07 02:54:33;;;;;;;15.53;13.07;;;;;;;5.73;64.25;100543.75;4979079;28;101480;-96
2021/11/07 02:57:00;;;;;;;21.03;14.37;;;;;;;5.84;63.81;100539.25;4987254;28;101541;-95
2021/11/07 02:59:28;;;;;;;16.77;13.60;;;;;;;5.68;63.74;100506.47;4997056;28;96623;-96
2021/11/07 03:01:55;;;;;;;15.90;12.97;;;;;;;5.87;63.65;100533.16;5000266;28;96933;-95
2021/11/07 03:04:22;;;;;;;14.43;12.63;;;;;;;5.93;63.64;100527.91;4998091;28;100990;-94
2021/11/07 03:06:48;;;;;;;16.13;13.67;;;;;;;5.92;63.25;100505.31;4999845;28;97918;-95
2021/11/07 03:09:22;;;;;;;19.43;15.10;;;;;;;5.92;63.34;100499.25;4994113;28;96945;-96
2021/11/07 03:11:49;;;;;;;18.50;14.57;;;;;;;6.11;63.18;100519.03;4975323;28;96684;-95
2021/11/07 03:17:56;;;;;;;17.30;13.10;;;;;;;6.12;63.18;100518.13;5165011;22;103526;-94
2021/11/07 03:20:21;;;;;;;14.97;13.33;;;;;;;6.05;62.96;100495.63;5019793;27;97077;-92
2021/11/07 03:22:49;;;;;;;16.70;13.57;;;;;;;6.03;62.98;100511.28;5013356;27;97970;-94
2021/11/07 03:25:15;;;;;;;19.73;15.23;;;;;;;6.00;63.58;100506.13;4995867;27;102068;-93
2021/11/07 03:27:43;;;;;;;17.23;15.03;;;;;;;6.04;63.35;100507.78;5015871;28;101334;-94
2021/11/07 03:30:55;;;;;;;14.60;13.10;;;;;;;6.05;63.11;100493.00;5000283;27;96683;-94
2021/11/07 03:33:22;;;;;;;15.53;12.90;;;;;;;5.85;64.02;100467.19;5034986;27;97520;-94
2021/11/07 03:35:48;;;;;;;13.50;12.10;;;;;;;5.68;63.93;100455.22;5013284;27;101890;-93
2021/11/07 03:38:14;;;;;;;14.80;12.53;;;;;;;5.84;63.96;100479.34;4994987;27;100410;-93
2021/11/07 03:40:40;;;;;;;14.23;11.30;;;;;;;5.78;63.82;100475.94;5009015;27;97315;-92
2021/11/07 03:43:06;;;;;;;15.17;11.50;;;;;;;5.67;64.24;100470.84;5003019;27;97147;-93
2021/11/07 03:45:32;;;;;;;14.33;11.10;;;;;;;5.54;64.18;100477.09;5024295;27;101470;-90
2021/11/07 03:47:58;;;;;;;13.40;11.70;;;;;;;5.54;64.41;100492.72;5038429;27;100007;-90
2021/11/07 03:50:26;;;;;;;17.60;13.37;;;;;;;5.43;64.87;100496.28;5010155;28;97356;-93
2021/11/07 03:52:52;;;;;;;15.50;13.87;;;;;;;5.23;64.41;100440.97;5012031;27;96824;-93
2021/11/07 03:55:18;;;;;;;14.33;12.47;;;;;;;5.47;64.72;100476.31;5021421;27;101036;-91
2021/11/07 03:57:43;;;;;;;12.70;11.43;;;;;;;5.53;63.90;100476.25;5027003;27;100814;-90
2021/11/07 04:00:11;;;;;;;13.77;12.37;;;;;;;5.63;63.77;100458.75;5028965;28;97949;-92
2021/11/07 04:02:38;;;;;;;12.23;11.10;;;;;;;5.62;63.71;100438.81;5017806;27;96826;-94
2021/11/07 04:05:03;;;;;;;13.50;12.20;;;;;;;5.68;63.20;100452.63;4997855;28;100219;-94
2021/11/07 04:07:29;;;;;;;17.83;12.27;;;;;;;5.44;64.12;100438.16;5001041;27;101320;-92
2021/11/07 04:09:55;;;;;;;13.17;11.87;;;;;;;5.34;64.20;100425.25;5024351;27;98092;-93
2021/11/07 04:12:21;;;;;;;12.17;10.80;;;;;;;5.36;64.64;100439.09;5017323;27;96852;-94
2021/11/07 04:14:46;;;;;;;13.63;12.23;;;;;;;4.95;64.49;100362.34;5019284;27;101264;-93
2021/11/07 04:17:12;;;;;;;14.20;12.70;;;;;;;5.37;64.47;100420.84;4984827;27;101088;-93
2021/11/07 04:19:37;;;;;;;14.67;11.77;;;;;;;5.51;64.43;100422.44;5018292;27;97239;-93
2021/11/07 04:22:06;;;;;;;13.40;12.00;;;;;;;5.27;63.78;100368.94;5029862;27;97117;-93
2021/11/07 04:24:32;;;;;;;12.40;11.00;;;;;;;5.55;63.73;100414.56;5010768;27;100335;-93
2021/11/07 04:26:58;;;;;;;17.17;12.37;;;;;;;5.29;63.34;100351.53;4999234;27;98387;-93
2021/11/07 04:29:25;;;;;;;15.83;11.37;;;;;;;5.60;63.10;100402.34;5015484;27;96958;-92
2021/11/07 04:31:50;;;;;;;12.43;11.17;;;;;;;5.55;62.85;100391.13;5005614;27;96999;-93
2021/11/07 04:34:16;;;;;;;13.57;12.17;;;;;;;5.33;63.51;100359.31;5018894;28;98987;-94
2021/11/07 04:36:42;;;;;;;13.80;11.97;;;;;;;5.44;63.51;100380.00;5020861;27;101096;-93
2021/11/07 04:39:07;;;;;;;14.33;12.83;;;;;;;5.67;62.97;100391.00;5022539;27;96734;-93
2021/11/07 04:41:33;;;;;;;13.20;11.30;;;;;;;5.62;62.96;100386.72;5021714;27;96977;-93
2021/11/07 04:43:59;;;;;;;15.37;12.10;;;;;;;5.27;63.35;100330.75;5005306;27;100020;-94
2021/11/07 04:46:24;;;;;;;16.23;12.40;;;;;;;5.47;63.41;100373.88;5039170;27;98293;-93
2021/11/07 04:48:50;;;;;;;16.07;12.17;;;;;;;5.33;62.92;100329.81;5004992;27;96867;-93
2021/11/07 04:51:17;;;;;;;19.60;14.43;;;;;;;5.32;62.92;100331.53;5003255;27;96973;-93
2021/11/07 04:53:45;;;;;;;15.80;12.70;;;;;;;5.70;62.71;100392.66;5020835;27;100315;-92
2021/11/07 04:56:10;;;;;;;17.37;13.20;;;;;;;5.53;62.62;100366.00;5005293;27;101014;-94
2021/11/07 04:58:36;;;;;;;18.80;13.87;;;;;;;5.82;62.63;100387.31;5021460;27;96674;-93
2021/11/07 05:01:02;;;;;;;17.90;13.63;;;;;;;5.85;62.23;100382.06;5022118;27;97315;-94
2021/11/07 05:03:29;;;;;;;16.00;13.13;;;;;;;5.53;62.29;100325.22;5009065;27;100300;-91
2021/11/07 05:05:55;;;;;;;13.47;12.17;;;;;;;5.37;62.14;100288.09;5018172;28;101542;-91
2021/11/07 05:08:21;;;;;;;13.63;11.90;;;;;;;5.88;62.22;100368.16;5003112;28;96791;-93
2021/11/07 05:10:46;;;;;;;15.93;12.43;;;;;;;5.84;62.26;100358.63;5003567;28;97047;-94
2021/11/07 05:13:12;;;;;;;17.17;13.20;;;;;;;5.65;62.53;100334.59;5033027;27;98343;-93
2021/11/07 05:15:38;;;;;;;15.87;12.53;;;;;;;5.49;62.56;100294.88;5004321;27;101541;-94
2021/11/07 05:18:04;;;;;;;15.77;12.07;;;;;;;5.95;61.86;100348.94;5004536;27;96897;-93
2021/11/07 05:20:30;;;;;;;12.83;10.63;;;;;;;5.77;62.15;100324.00;5001689;28;96901;-94
2021/11/07 05:22:56;;;;;;;15.77;11.80;;;;;;;5.93;62.16;100340.28;5021439;27;98912;-93
2021/11/07 05:25:22;;;;;;;17.40;13.23;;;;;;;5.93;61.81;100309.03;5018053;28;101652;-94
2021/11/07 05:27:48;;;;;;;17.77;13.00;;;;;;;5.97;61.69;100299.44;5003949;27;97129;-93
2021/11/07 05:30:15;;;;;;;15.97;12.77;;;;;;;6.02;61.01;100295.00;5004971;27;96811;-93
2021/11/07 05:32:41;;;;;;;18.33;13.27;;;;;;;6.21;60.74;100304.25;5008671;27;101355;-94
2021/11/07 05:35:08;;;;;;;13.67;11.90;;;;;;;6.09;60.41;100279.25;5018303;28;97944;-93
2021/11/07 05:37:33;;;;;;;13.50;11.97;;;;;;;6.26;60.56;100298.97;5000402;28;96837;-90
2021/11/07 05:39:59;;;;;;;18.23;12.67;;;;;;;6.05;61.12;100258.47;5036191;27;96803;-94
2021/11/07 05:42:25;;;;;;;13.70;12.40;;;;;;;6.27;60.89;100295.47;5020234;27;101653;-93
2021/11/07 05:44:50;;;;;;;13.47;12.00;;;;;;;6.26;60.42;100289.41;5003258;27;101076;-94
2021/11/07 05:47:16;;;;;;;12.93;11.63;;;;;;;6.33;60.63;100292.75;4995573;28;96800;-95
2021/11/07 05:49:41;;;;;;;14.27;12.60;;;;;;;6.38;60.20;100270.06;5003392;27;97092;-94
2021/11/07 05:52:07;;;;;;;14.07;12.57;;;;;;;6.26;60.24;100254.66;5037163;27;100938;-93
2021/11/07 05:54:33;;;;;;;22.13;14.33;;;;;;;6.34;60.09;100274.50;5037085;27;98253;-89
2021/11/07 05:57:00;;;;;;;12.50;11.03;;;;;;;6.47;60.44;100290.75;5008627;27;96724;-94
2021/11/07 05:59:28;;;;;;;16.10;12.37;;;;;;;6.52;59.82;100269.84;5017723;28;98415;-93
2021/11/07 06:01:54;;;;;;;12.53;10.33;;;;;;;6.58;59.66;100280.16;5017286;27;99930;-92
2021/11/07 06:04:20;;;;;;;14.97;12.10;;;;;;;6.67;59.41;100274.75;5003738;27;100192;-93
2021/11/07 06:06:45;;;;;;;14.23;11.07;;;;;;;6.66;59.65;100264.34;5010664;27;97003;-94
2021/11/07 06:09:11;;;;;;;15.07;11.53;;;;;;;6.67;59.46;100268.69;5000355;28;96959;-93
2021/11/07 06:11:37;;;;;;;15.27;10.97;;;;;;;6.70;59.79;100274.69;5013811;28;97989;-92
2021/11/07 06:14:02;;;;;;;12.70;11.40;;;;;;;6.67;59.80;100255.66;5015101;27;101020;-94
2021/11/07 06:16:28;;;;;;;13.47;11.50;;;;;;;6.66;59.85;100248.69;5020030;27;97064;-92
2021/11/07 06:18:53;;;;;;;13.33;11.93;;;;;;;6.78;59.42;100251.09;5026219;27;96631;-89
2021/11/07 06:21:21;;;;;;;16.70;12.33;;;;;;;6.43;59.59;100197.84;5060889;27;97398;-92
2021/11/07 06:23:48;;;;;;;14.07;11.23;;;;;;;6.68;60.07;100252.13;5026970;27;99708;-90
2021/11/07 06:26:15;;;;;;;13.60;11.37;;;;;;;6.76;59.44;100255.47;5040382;27;96519;-91
2021/11/07 06:28:40;;;;;;;12.73;10.57;;;;;;;6.67;59.66;100243.47;5020459;28;96051;-90
2021/11/07 06:31:08;;;;;;;12.20;11.10;;;;;;;7.02;59.11;100262.78;5041393;27;100577;-91
2021/11/07 06:33:35;;;;;;;12.13;10.77;;;;;;;6.86;59.04;100237.88;5040118;28;100478;-89
2021/11/07 06:36:01;;;;;;;11.50;10.07;;;;;;;7.05;59.03;100259.25;5049857;27;96365;-91
2021/11/07 06:38:26;;;;;;;12.03;10.10;;;;;;;7.12;58.69;100251.25;5024539;28;96353;-93
2021/11/07 06:40:52;;;;;;;12.33;10.77;;;;;;;7.18;58.51;100237.19;5034637;28;100128;-91
2021/11/07 06:43:18;;;;;;;10.97;9.80;;;;;;;7.32;58.48;100240.38;5034973;27;101150;-90
2021/11/07 06:45:43;;;;;;;11.93;10.63;;;;;;;7.43;58.06;100235.78;5042037;27;98654;-92
2021/11/07 06:48:09;;;;;;;11.40;10.20;;;;;;;7.23;57.70;100202.25;5028940;27;97128;-93
2021/11/07 06:50:35;;;;;;;11.90;10.50;;;;;;;7.37;57.55;100224.63;5002050;27;100490;-90
2021/11/07 06:53:02;;;;;;;13.27;11.30;;;;;;;7.52;57.51;100252.13;5003247;27;101269;-93
2021/11/07 06:55:28;;;;;;;15.53;11.20;;;;;;;7.56;57.22;100245.94;5000468;27;96747;-94
2021/11/07 06:57:53;;;;;;;12.00;10.80;;;;;;;7.55;57.75;100252.06;5000409;27;96931;-91
2021/11/07 07:00:23;;;;;;;12.70;11.40;;;;;;;7.53;57.72;100248.63;5017894;27;100709;-93
2021/11/07 07:02:48;;;;;;;12.85;11.45;;;;;;;7.68;57.29;100240.47;4999452;27;101095;-94
2021/11/07 07:05:17;;;;;;;14.15;10.93;;;;;;;7.44;57.42;100200.06;5004525;27;97350;-93
2021/11/07 07:07:46;;;;;;;14.23;11.13;;;;;;;7.33;57.76;100186.38;5001658;27;97214;-94
2021/11/07 07:10:21;;;;;;;12.80;11.50;;;;;;;7.80;57.29;100247.16;5018629;27;97623;-94
2021/11/07 07:13:02;;;;;;;13.82;11.07;;;;;;;7.52;57.44;100208.59;5017541;27;101480;-94
2021/11/07 07:15:35;;;;;;;13.75;12.32;;;;;;;7.39;57.37;100183.66;5001747;27;97165;-94
2021/11/07 07:18:34;;;;;;;14.13;12.63;;;;;;;7.62;57.75;100227.50;5030193;27;97180;-94
2021/11/07 07:21:11;;;;;;;12.63;11.32;;;;;;;7.68;57.39;100224.78;5041830;27;98936;-93
2021/11/07 07:26:20;;;;;;;12.88;11.43;;;;;;;8.17;56.59;100207.84;5015983;27;97026;-94
2021/11/07 07:29:06;;;;;;;13.98;11.73;;;;;;;8.26;55.98;100205.03;5015610;27;96746;-94
2021/11/07 07:31:48;;;;;;;13.43;12.02;;;;;;;8.33;55.88;100179.56;5020060;27;98388;-91
2021/11/07 07:34:20;;;;;;;12.80;11.60;;;;;;;9.12;54.28;100172.97;5019878;27;98735;-91
2021/11/07 07:36:46;;;;;;;12.77;11.48;;;;;;;10.15;51.75;100165.22;5016427;27;97063;-94
2021/11/07 07:39:12;;;;;;;15.63;12.65;;;;;;;9.78;52.38;100163.88;5019491;27;96882;-94
2021/11/07 07:41:38;;;;;;;14.15;12.13;;;;;;;9.80;52.54;100169.06;5034168;27;98307;-90
2021/11/07 07:44:07;;;;;;;14.00;12.63;;;;;;;10.57;51.15;100144.53;5014616;28;101140;-91
2021/11/07 07:46:39;;;;;;;15.88;11.48;;;;;;;10.66;49.21;100135.44;4998431;27;96860;-91
2021/11/07 07:49:05;;;;;;;12.35;11.05;;;;;;;11.13;48.30;100119.63;5005375;27;96972;-92
2021/11/07 07:51:31;;;;;;;12.43;10.73;;;;;;;11.55;47.40;100093.41;5018568;27;98380;-91
2021/11/07 07:54:01;;;;;;;9.98;8.88;;;;;;;11.98;46.42;100114.41;5018419;27;97914;-91
2021/11/07 07:56:30;;;;;;;10.55;9.45;;;;;;;12.35;45.20;100102.28;5000508;27;96719;-92
2021/11/07 07:58:56;;;;;;;10.25;9.18;;;;;;;12.73;44.91;100100.53;4993319;27;97507;-91
2021/11/07 08:01:23;;;;;;;14.65;9.07;;;;;;;13.15;43.56;100104.72;5009192;27;100216;-90
2021/11/07 08:03:50;;;;;;;10.48;9.48;;;;;;;13.14;43.57;100106.47;5004006;27;100860;-89
2021/11/07 08:06:15;;;;;;;11.50;10.30;;;;;;;13.42;43.20;100109.59;5003111;27;98633;-87
2021/11/07 08:08:41;;;;;;;11.60;10.52;;;;;;;14.04;42.17;100095.00;4999163;27;97072;-89
2021/11/07 08:11:07;;;;;;;10.98;9.98;;;;;;;14.57;41.46;100086.06;5002642;27;101347;-87
2021/11/07 08:13:33;;;;;;;11.13;10.10;;;;;;;14.84;40.61;100099.56;5017523;27;100457;-86
2021/11/07 08:15:58;;;;;;;11.90;9.40;;;;;;;15.12;39.18;100095.38;5025136;27;97262;-87
2021/11/07 08:18:24;;;;;;;11.63;10.63;;;;;;;15.96;38.14;100093.16;5018027;27;97374;-86
2021/11/07 08:20:50;;;;;;;11.52;10.43;;;;;;;16.64;37.49;100073.97;5013986;27;100359;-86
2021/11/07 08:23:17;;;;;;;11.57;10.52;;;;;;;15.84;38.62;100084.16;4999304;27;101974;-87
2021/11/07 08:25:43;;;;;;;11.63;10.63;;;;;;;15.38;39.01;100078.88;5000939;27;97510;-87
2021/11/07 08:28:09;;;;;;;10.95;10.00;;;;;;;15.07;39.95;100087.72;5020578;27;96802;-88
2021/11/07 08:30:41;;;;;;;12.30;11.20;;;;;;;14.59;40.58;100084.19;4996027;27;101277;-87
2021/11/07 08:33:08;;;;;;;11.82;10.57;;;;;;;14.07;41.94;100078.16;5012795;27;97374;-87
2021/11/07 08:35:39;;;;;;;12.20;11.05;;;;;;;13.67;42.73;100088.13;5032264;27;97842;-87
2021/11/07 08:38:10;;;;;;;11.38;10.38;;;;;;;12.85;44.13;100093.84;5011780;27;97140;-89
2021/11/07 08:40:58;;;;;;;11.43;10.40;;;;;;;12.55;44.34;100078.53;5027265;27;98484;-86
2021/11/07 09:00:13;;;;;;;10.75;9.40;;;;;;;10.95;46.01;100065.22;5031714;27;100825;-86
2021/11/07 09:05:23;;;;;;;11.63;10.48;;;;;;;10.77;46.81;100070.28;5017559;27;100378;-86
2021/11/07 09:10:29;;;;;;;11.73;10.63;;;;;;;10.59;47.21;100066.59;5022131;27;97255;-89
2021/11/07 09:12:55;;;;;;;11.13;10.02;;;;;;;10.63;47.54;100072.56;5000620;27;101123;-91
2021/11/07 09:15:22;;;;;;;11.13;9.98;;;;;;;10.61;47.84;100075.22;5017840;27;100967;-85
2021/11/07 09:17:48;;;;;;;11.68;10.63;;;;;;;10.35;47.51;100031.59;5021287;27;97801;-83
2021/11/07 09:20:23;;;;;;;11.93;10.82;;;;;;;10.36;48.59;100064.81;4999410;27;97372;-85
2021/11/07 09:22:53;;;;;;;11.93;10.75;;;;;;;10.26;48.75;100067.81;5016328;27;97515;-86
2021/11/07 09:27:55;;;;;;;11.23;9.75;;;;;;;10.04;49.08;100042.38;5012300;27;96872;-84
2021/11/07 09:30:32;;;;;;;10.52;9.52;;;;;;;10.15;49.31;100045.47;5036401;27;98194;-84
2021/11/07 09:36:07;;;;;;;11.77;10.68;;;;;;;9.91;49.94;100031.44;5016792;27;101671;-85
2021/11/07 09:38:35;;;;;;;11.88;10.68;;;;;;;9.93;50.07;100031.41;5038750;27;97235;-85
2021/11/07 09:41:17;;;;;;;13.60;9.83;;;;;;;9.66;49.87;100002.66;5001637;28;96961;-81
2021/11/07 09:48:56;;;;;;;11.98;10.73;;;;;;;9.46;50.74;100008.56;5028054;27;97262;-85
2021/11/07 09:51:27;;;;;;;11.15;10.15;;;;;;;9.61;50.92;100028.16;4999810;28;97021;-84
2021/11/07 09:53:55;;;;;;;13.77;10.45;;;;;;;9.51;51.45;100011.03;5019067;28;97740;-82
2021/11/07 09:56:22;;;;;;;11.73;10.48;;;;;;;9.27;51.46;99981.28;4997952;28;101655;-88
2021/11/07 09:58:51;;;;;;;13.90;9.88;;;;;;;9.38;52.03;100020.22;5012239;27;98122;-93
2021/11/07 10:01:17;;;;;;;11.80;10.15;;;;;;;9.39;52.25;100025.41;5032509;27;96809;-85
2021/11/07 10:03:45;;;;;;;11.27;10.27;;;;;;;9.30;52.20;99995.13;5007087;28;101967;-89
2021/11/07 10:06:56;;;;;;;11.27;10.30;;;;;;;9.41;52.12;99986.06;5000516;28;101085;-86
2021/11/07 10:09:41;;;;;;;12.85;11.07;;;;;;;9.32;52.95;99981.16;5021382;27;96911;-85
2021/11/07 10:12:16;;;;;;;10.75;9.40;;;;;;;9.42;52.65;100006.09;5019259;27;96830;-84
2021/11/07 10:14:51;;;;;;;11.77;10.45;;;;;;;9.38;53.00;99983.53;5014977;28;101617;-83
2021/11/07 10:17:37;;;;;;;13.90;10.95;;;;;;;9.41;53.41;99986.91;5016153;27;99107;-84
2021/11/07 10:22:42;;;;;;;15.80;11.98;;;;;;;9.40;52.90;99982.59;5024618;27;97144;-83
2021/11/07 10:25:16;;;;;;;15.90;13.80;;;;;;;9.43;52.58;99979.88;5032233;27;99284;-81
2021/11/07 10:27:46;;;;;;;19.67;15.25;;;;;;;9.16;53.11;99942.38;5027170;27;97905;-81
2021/11/07 10:30:16;;;;;;;18.77;14.77;;;;;;;9.39;53.24;99967.75;5012078;27;97188;-84
2021/11/07 10:32:55;;;;;;;16.48;12.82;;;;;;;9.37;53.41;99979.22;5028696;27;97256;-86
2021/11/07 10:38:15;;;;;;;18.13;15.25;;;;;;;9.42;53.60;99972.03;5008618;27;100727;-89
2021/11/07 10:41:02;;;;;;;14.13;12.65;;;;;;;9.38;53.78;99973.06;5005478;27;97298;-86
2021/11/07 10:52:07;;;;;;;12.05;10.75;;;;;;;9.38;54.26;99949.50;5039374;27;97105;-85
2021/11/07 10:54:41;;;;;;;15.57;11.80;;;;;;;9.74;53.48;99968.28;5019292;27;97078;-85
2021/11/07 10:57:27;;;;;;;12.25;10.98;;;;;;;10.08;52.80;99940.81;5020299;28;100894;-84
2021/11/07 11:00:11;;;;;;;15.68;12.98;;;;;;;10.19;52.61;99959.63;5024957;27;97763;-87
2021/11/07 11:02:37;;;;;;;14.65;11.15;;;;;;;10.27;52.59;99947.13;5034524;27;96746;-85
2021/11/07 11:05:12;;;;;;;20.20;14.23;;;;;;;10.12;52.79;99956.41;5054816;27;97223;-83
2021/11/07 11:07:57;;;;;;;17.25;14.20;;;;;;;10.16;53.17;99954.50;5027168;27;101652;-84
2021/11/07 11:10:29;;;;;;;35.95;18.77;;;;;;;10.30;52.75;99941.75;5017319;27;101306;-87
2021/11/07 11:22:25;;;;;;;15.30;12.65;;;;;;;10.38;52.07;99934.44;5010481;27;101458;-85
2021/11/07 11:25:00;;;;;;;12.98;11.65;;;;;;;10.45;52.91;99942.06;5023001;27;97012;-85
2021/11/07 11:35:21;;;;;;;13.02;11.50;;;;;;;10.57;52.78;99923.19;5031456;27;96868;-85
2021/11/07 11:37:57;;;;;;;14.18;12.35;;;;;;;10.46;52.93;99921.00;4997418;27;96752;-85
2021/11/07 11:42:56;;;;;;;14.77;11.05;;;;;;;10.46;52.99;99920.16;5021948;27;101489;-85
2021/11/07 11:45:33;;;;;;;16.75;11.98;;;;;;;10.32;53.28;99932.03;5003898;27;96842;-84
2021/11/07 11:48:06;;;;;;;12.73;11.40;;;;;;;10.17;53.80;99916.84;5032493;27;97074;-83
2021/11/07 11:50:51;;;;;;;12.40;11.10;;;;;;;10.08;54.11;99907.59;5036091;27;97949;-82
2021/11/07 11:59:15;;;;;;;14.20;12.05;;;;;;;10.07;54.60;99882.28;4983821;27;97373;-82
2021/11/07 12:01:50;;;;;;;15.27;12.48;;;;;;;10.19;54.35;99871.31;5015341;27;101386;-81
2021/11/07 12:04:27;;;;;;;14.63;11.75;;;;;;;10.33;54.29;99885.69;5030479;27;101129;-81
2021/11/07 12:07:09;;;;;;;11.35;10.15;;;;;;;9.91;54.89;99855.78;5016764;27;97794;-82
2021/11/07 12:10:00;;;;;;;11.00;9.55;;;;;;;10.16;54.71;99891.56;5011483;27;97912;-79
2021/11/07 12:15:28;;;;;;;11.13;9.75;;;;;;;10.15;55.22;99863.59;5015672;27;100720;-79
2021/11/07 12:18:08;;;;;;;11.23;9.45;;;;;;;10.12;55.54;99861.97;5012636;27;97332;-79
2021/11/07 12:20:38;;;;;;;11.55;10.35;;;;;;;10.20;55.15;99885.25;5009436;27;98066;-79
2021/11/07 12:23:14;;;;;;;12.45;11.15;;;;;;;10.14;55.06;99888.97;5015851;27;97824;-79
2021/11/07 12:25:40;;;;;;;11.43;9.82;;;;;;;10.19;55.31;99880.94;5016834;27;97240;-79
2021/11/07 12:28:06;;;;;;;12.10;9.35;;;;;;;10.17;55.30;99859.16;5010426;27;98177;-79
2021/11/07 12:30:33;;;;;;;9.80;8.57;;;;;;;10.16;54.98;99876.66;4997077;27;97383;-79
2021/11/07 12:33:16;;;;;;;9.63;8.63;;;;;;;10.08;55.46;99856.91;4997828;27;101534;-79
2021/11/07 12:35:58;;;;;;;9.68;8.68;;;;;;;10.16;55.25;99860.09;5015696;27;101226;-79
2021/11/07 12:41:11;;;;;;;10.45;9.35;;;;;;;10.16;55.33;99850.44;5026166;27;96877;-79
2021/11/07 12:44:02;;;;;;;12.35;10.18;;;;;;;10.22;54.45;99843.25;5034032;27;97333;-80
2021/11/07 12:46:35;;;;;;;;;;;;;;;10.16;55.84;99850.44;5004068;27;101114;-76
2021/11/07 12:49:23;;;;;;;10.93;9.90;;;;;;;10.05;55.73;99839.50;5023915;27;97252;-76
2021/11/07 12:51:52;;;;;;;9.13;8.20;;;;;;;10.02;56.64;99834.41;5015211;27;97010;-77
2021/11/07 12:54:27;;;;;;;13.10;10.18;;;;;;;10.12;55.57;99843.63;5002145;27;98763;-76
2021/11/07 12:56:57;;;;;;;10.82;9.73;;;;;;;10.20;56.16;99841.53;5006716;27;101133;-76
2021/11/07 12:59:31;;;;;;;11.18;10.07;;;;;;;10.11;56.17;99841.91;5016730;27;97373;-76
2021/11/07 13:02:12;;;;;;;13.48;10.68;;;;;;;10.18;56.13;99847.75;5033078;27;97123;-77
2021/11/07 13:04:45;;;;;;;11.15;9.93;;;;;;;10.11;55.83;99846.28;5031572;27;97408;-78
2021/11/07 13:07:21;;;;;;;12.25;9.40;;;;;;;10.14;55.84;99846.16;5017085;27;101738;-76
2021/11/07 13:09:54;;;;;;;11.52;10.32;;;;;;;9.99;56.29;99850.25;5034502;27;96757;-77
2021/11/07 13:12:31;;;;;;;11.48;10.30;;;;;;;9.97;55.73;99838.97;5016362;27;96968;-77
2021/11/07 13:26:05;;;;;;;14.48;10.57;;;;;;;9.82;56.82;99857.91;5016040;27;100994;-78